createdAt,value
2024-03-01T00:02:09.496Z,56.39
2024-03-01T00:04:38.017Z,57.01
2024-03-01T00:07:06.691Z,56.73
2024-03-01T00:09:34.592Z,57.15
2024-03-01T00:12:02.794Z,57.25
2024-03-01T00:14:30.678Z,56.55
2024-03-01T00:16:59.109Z,57.10
2024-03-01T00:19:27.161Z,56.46
2024-03-01T00:21:55.492Z,57.13
2024-03-01T00:24:23.484Z,56.87
2024-03-01T00:26:51.877Z,57.73
2024-03-01T00:29:19.764Z,56.75
2024-03-01T00:31:48.034Z,57.10
2024-03-01T00:34:15.992Z,56.35
2024-03-01T00:36:44.729Z,56.80
2024-03-01T00:39:12.835Z,56.62
2024-03-01T00:41:40.755Z,56.86
2024-03-01T00:44:10.804Z,57.09
2024-03-01T00:46:38.827Z,56.57
2024-03-01T00:49:06.955Z,56.86
2024-03-01T00:51:35.031Z,56.79
2024-03-01T00:54:04.298Z,57.17
2024-03-01T00:56:32.954Z,56.55
2024-03-01T00:59:00.825Z,56.82
2024-03-01T01:01:29.024Z,56.51
2024-03-01T01:03:57.346Z,57.11
2024-03-01T01:06:25.390Z,57.42
2024-03-01T01:08:53.944Z,56.81
2024-03-01T01:11:22.052Z,56.89
2024-03-01T01:13:49.958Z,56.92
2024-03-01T01:16:18.063Z,56.92
2024-03-01T01:18:45.917Z,56.84
2024-03-01T01:21:13.847Z,57.25
2024-03-01T01:23:41.787Z,56.90
2024-03-01T01:26:10.057Z,57.18
2024-03-01T01:28:38.042Z,56.52
2024-03-01T01:31:09.415Z,56.46
2024-03-01T01:33:37.471Z,57.11
2024-03-01T01:36:07.041Z,57.06
2024-03-01T01:38:34.975Z,56.68
2024-03-01T01:41:03.144Z,57.20
2024-03-01T01:43:33.635Z,56.55
2024-03-01T01:46:01.857Z,56.67
2024-03-01T01:48:29.857Z,56.52
2024-03-01T01:50:58.608Z,56.27
2024-03-01T01:53:27.848Z,56.68
2024-03-01T01:56:03.154Z,56.61
2024-03-01T01:58:34.865Z,56.96
2024-03-01T02:01:09.369Z,56.22
2024-03-01T02:03:39.509Z,56.84
2024-03-01T02:06:08.476Z,56.80
2024-03-01T02:08:39.010Z,56.80
2024-03-01T02:11:07.692Z,56.48
2024-03-01T02:13:35.716Z,56.35
2024-03-01T02:16:04.167Z,56.50
2024-03-01T02:18:34.316Z,56.11
2024-03-01T02:21:12.187Z,56.85
2024-03-01T02:23:40.126Z,56.40
2024-03-01T02:26:08.225Z,55.97
2024-03-01T02:28:46.445Z,56.10
2024-03-01T02:31:15.910Z,55.82
2024-03-01T02:33:44.111Z,56.37
2024-03-01T02:36:12.605Z,56.24
2024-03-01T02:38:40.474Z,56.95
2024-03-01T02:41:08.359Z,56.94
2024-03-01T02:43:36.942Z,57.87
2024-03-01T02:46:05.082Z,57.06
2024-03-01T02:48:32.957Z,57.38
2024-03-01T02:51:00.995Z,57.46
2024-03-01T02:53:28.944Z,58.02
2024-03-01T02:55:56.999Z,57.91
2024-03-01T02:58:25.369Z,57.72
2024-03-01T03:00:53.746Z,58.06
2024-03-01T03:03:21.847Z,58.68
2024-03-01T03:05:50.004Z,58.11
2024-03-01T03:08:17.886Z,58.15
2024-03-01T03:10:45.971Z,59.38
2024-03-01T03:13:14.194Z,58.77
2024-03-01T03:15:42.284Z,59.12
2024-03-01T03:18:10.406Z,59.67
2024-03-01T03:20:38.482Z,59.40
2024-03-01T03:23:06.791Z,59.54
2024-03-01T03:25:37.489Z,60.33
2024-03-01T03:28:06.172Z,59.56
2024-03-01T03:30:34.022Z,58.62
2024-03-01T03:33:02.121Z,59.23
2024-03-01T03:35:30.023Z,59.03
2024-03-01T03:37:58.083Z,59.17
2024-03-01T03:40:26.029Z,59.89
2024-03-01T03:42:54.112Z,60.09
2024-03-01T03:45:21.962Z,59.97
2024-03-01T03:47:50.112Z,59.49
2024-03-01T03:50:18.064Z,60.10
2024-03-01T03:52:46.236Z,59.20
2024-03-01T03:55:14.153Z,59.83
2024-03-01T03:57:42.331Z,60.13
2024-03-01T04:00:11.633Z,60.56
2024-03-01T04:02:40.112Z,61.14
2024-03-01T04:05:08.617Z,61.22
2024-03-01T04:07:37.182Z,61.57
2024-03-01T04:10:10.677Z,61.29
2024-03-01T04:12:38.877Z,61.59
2024-03-01T04:15:07.269Z,62.10
2024-03-01T04:17:35.418Z,62.41
2024-03-01T04:20:05.403Z,61.48
2024-03-01T04:22:33.518Z,61.60
2024-03-01T04:25:01.776Z,61.55
2024-03-01T04:27:31.829Z,61.56
2024-03-01T04:30:00.010Z,61.85
2024-03-01T04:32:29.314Z,62.13
2024-03-01T04:34:57.698Z,62.81
2024-03-01T04:37:25.777Z,62.76
2024-03-01T04:39:53.730Z,62.94
2024-03-01T04:42:21.828Z,62.67
2024-03-01T04:44:50.034Z,63.36
2024-03-01T04:47:18.067Z,63.07
2024-03-01T04:49:46.656Z,62.83
2024-03-01T04:52:14.899Z,63.75
2024-03-01T04:54:43.164Z,63.75
2024-03-01T04:57:11.482Z,64.24
2024-03-01T04:59:40.720Z,63.73
2024-03-01T05:02:09.306Z,64.42
2024-03-01T05:04:40.399Z,64.69
2024-03-01T05:07:10.575Z,64.74
2024-03-01T05:09:39.707Z,65.12
2024-03-01T05:12:14.585Z,64.21
2024-03-01T05:14:43.267Z,64.25
2024-03-01T05:17:13.176Z,64.44
2024-03-01T05:19:41.845Z,64.08
2024-03-01T05:22:14.081Z,63.72
2024-03-01T05:24:42.456Z,64.20
2024-03-01T05:27:14.715Z,63.60
2024-03-01T05:29:43.603Z,63.51
2024-03-01T05:32:11.867Z,63.79
2024-03-01T05:34:40.476Z,63.66
2024-03-01T05:37:08.919Z,63.62
2024-03-01T05:39:37.515Z,63.69
2024-03-01T05:42:07.735Z,64.24
2024-03-01T05:44:35.805Z,63.72
2024-03-01T05:47:04.620Z,63.96
2024-03-01T05:49:32.676Z,63.71
2024-03-01T05:52:00.794Z,63.86
2024-03-01T05:54:30.673Z,64.02
2024-03-01T05:56:59.497Z,63.73
2024-03-01T05:59:27.665Z,63.83
2024-03-01T06:01:56.307Z,64.55
2024-03-01T06:04:24.329Z,64.28
2024-03-01T06:06:52.991Z,64.73
2024-03-01T06:09:21.011Z,64.27
2024-03-01T06:11:49.223Z,64.41
2024-03-01T06:14:19.187Z,63.83
2024-03-01T06:16:47.893Z,63.40
2024-03-01T06:19:15.984Z,63.41
2024-03-01T06:21:44.656Z,63.26
2024-03-01T06:24:12.584Z,65.09
2024-03-01T06:26:40.745Z,65.87
2024-03-01T06:29:08.659Z,65.57
2024-03-01T06:31:36.733Z,64.45
2024-03-01T06:34:05.127Z,63.81
2024-03-01T06:36:33.272Z,63.39
2024-03-01T06:39:02.104Z,63.12
2024-03-01T06:41:30.328Z,63.34
2024-03-01T06:43:58.274Z,63.38
2024-03-01T06:46:26.972Z,62.99
2024-03-01T06:48:54.980Z,63.37
2024-03-01T06:51:23.050Z,62.94
2024-03-01T06:53:50.944Z,63.42
2024-03-01T06:56:19.220Z,63.34
2024-03-01T06:58:47.135Z,63.25
2024-03-01T07:01:17.526Z,62.57
2024-03-01T07:03:45.484Z,62.66
2024-03-01T07:06:13.788Z,63.34
2024-03-01T07:08:43.078Z,62.95
2024-03-01T07:11:11.280Z,63.20
2024-03-01T07:13:39.951Z,63.18
2024-03-01T07:16:08.212Z,62.98
2024-03-01T07:18:36.186Z,63.32
2024-03-01T07:21:05.002Z,63.74
2024-03-01T07:23:32.994Z,63.86
2024-03-01T07:26:03.585Z,62.97
2024-03-01T07:28:32.997Z,63.47
2024-03-01T07:31:01.854Z,63.73
2024-03-01T07:33:31.868Z,64.16
2024-03-01T07:36:00.062Z,63.81
2024-03-01T07:38:27.964Z,64.68
2024-03-01T07:40:56.137Z,64.11
2024-03-01T07:43:24.030Z,64.39
2024-03-01T07:45:52.080Z,63.81
2024-03-01T07:48:20.134Z,63.43
2024-03-01T07:50:48.053Z,63.52
2024-03-01T07:53:16.456Z,63.00
2024-03-01T07:55:44.531Z,63.78
2024-03-01T07:58:12.529Z,63.50
2024-03-01T08:00:40.684Z,62.91
2024-03-01T08:03:10.463Z,62.92
2024-03-01T08:05:39.856Z,63.37
2024-03-01T08:08:09.951Z,63.21
2024-03-01T08:10:45.901Z,62.88
2024-03-01T08:13:14.729Z,62.23
2024-03-01T08:15:42.711Z,62.96
2024-03-01T08:18:19.454Z,62.13
2024-03-01T08:20:57.573Z,63.03
2024-03-01T08:23:27.564Z,62.95
2024-03-01T08:25:56.760Z,62.18
2024-03-01T08:28:29.568Z,62.24
2024-03-01T08:30:58.130Z,62.23
2024-03-01T08:33:26.083Z,61.45
2024-03-01T08:35:54.178Z,62.05
2024-03-01T08:38:40.932Z,61.72
2024-03-01T08:41:09.722Z,61.15
2024-03-01T08:43:38.300Z,61.90
2024-03-01T08:46:07.392Z,62.33
2024-03-01T08:48:35.519Z,62.10
2024-03-01T08:51:04.759Z,61.46
2024-03-01T08:53:42.028Z,61.51
2024-03-01T08:56:18.758Z,60.57
2024-03-01T08:58:47.723Z,60.63
2024-03-01T09:01:47.268Z,61.06
2024-03-01T09:04:28.648Z,60.20
2024-03-01T09:07:27.761Z,61.47
2024-03-01T09:09:56.851Z,60.27
2024-03-01T09:12:27.645Z,60.31
2024-03-01T09:15:01.166Z,61.17
2024-03-01T09:17:29.864Z,60.30
2024-03-01T09:19:59.929Z,60.55
2024-03-01T09:22:27.928Z,60.70
2024-03-01T09:24:56.376Z,60.04
2024-03-01T09:27:33.157Z,60.15
2024-03-01T09:30:15.157Z,59.63
2024-03-01T09:32:43.453Z,59.20
2024-03-01T09:35:11.755Z,59.16
2024-03-01T09:37:39.691Z,59.71
2024-03-01T09:40:39.662Z,58.57
2024-03-01T09:43:23.392Z,58.25
2024-03-01T09:45:57.155Z,57.78
2024-03-01T09:48:35.420Z,59.12
2024-03-01T09:51:12.372Z,58.35
2024-03-01T09:54:11.863Z,57.85
2024-03-01T09:57:00.054Z,58.25
2024-03-01T09:59:56.120Z,58.07
2024-03-01T10:02:54.626Z,58.65
2024-03-01T10:05:28.741Z,58.15
2024-03-01T10:08:28.652Z,57.79
2024-03-01T10:11:05.735Z,58.29
2024-03-01T10:13:49.021Z,57.87
2024-03-01T10:16:28.878Z,57.97
2024-03-01T10:19:26.404Z,57.83
2024-03-01T10:22:20.416Z,57.78
2024-03-01T10:25:13.186Z,56.98
2024-03-01T10:27:49.289Z,58.16
2024-03-01T10:30:21.178Z,59.38
2024-03-01T10:33:24.550Z,58.65
2024-03-01T10:36:19.530Z,57.87
2024-03-01T10:39:00.654Z,57.13
2024-03-01T10:41:51.497Z,56.85
2024-03-01T10:44:51.810Z,57.17
2024-03-01T10:47:24.683Z,57.36
2024-03-01T10:50:08.279Z,56.69
2024-03-01T10:52:59.008Z,57.38
2024-03-01T10:55:36.073Z,56.97
2024-03-01T10:58:31.988Z,56.96
2024-03-01T11:01:17.479Z,55.49
2024-03-01T11:03:51.624Z,56.39
2024-03-01T11:07:07.126Z,56.82
2024-03-01T11:09:46.293Z,56.90
2024-03-01T11:12:28.467Z,56.69
2024-03-01T11:15:15.582Z,56.69
2024-03-01T11:17:47.264Z,57.50
2024-03-01T11:20:32.860Z,57.63
2024-03-01T11:23:09.802Z,59.13
2024-03-01T11:25:51.377Z,58.44
2024-03-01T11:28:25.084Z,58.18
2024-03-01T11:31:12.272Z,57.92
2024-03-01T11:33:42.923Z,58.22
2024-03-01T11:36:29.381Z,59.44
2024-03-01T11:39:12.784Z,60.14
2024-03-01T11:41:52.816Z,59.73
2024-03-01T11:44:51.784Z,59.66
2024-03-01T11:47:42.615Z,60.41
2024-03-01T11:50:32.093Z,61.36
2024-03-01T11:53:05.705Z,61.70
2024-03-01T11:55:45.604Z,61.06
2024-03-01T11:58:38.998Z,61.05
2024-03-01T12:01:39.870Z,60.73
2024-03-01T12:04:29.955Z,60.96
2024-03-01T12:07:10.171Z,61.90
2024-03-01T12:09:40.993Z,60.74
2024-03-01T12:12:29.347Z,59.77
2024-03-01T12:15:01.817Z,59.30
2024-03-01T12:17:38.807Z,59.04
2024-03-01T12:20:11.707Z,59.58
2024-03-01T12:23:07.639Z,60.16
2024-03-01T12:25:37.833Z,59.66
2024-03-01T12:28:15.138Z,58.93
2024-03-01T12:31:03.255Z,59.39
2024-03-01T12:33:42.527Z,60.06
2024-03-01T12:36:25.005Z,60.09
2024-03-01T12:39:04.088Z,59.82
2024-03-01T12:41:52.374Z,60.07
2024-03-01T12:44:40.370Z,61.67
2024-03-01T12:47:50.000Z,63.17
2024-03-01T12:50:20.743Z,63.84
2024-03-01T12:53:07.429Z,63.39
2024-03-01T12:55:48.000Z,62.52
2024-03-01T12:58:35.281Z,62.88
2024-03-01T13:01:10.573Z,62.47
2024-03-01T13:03:48.422Z,62.25
2024-03-01T13:06:18.220Z,62.63
2024-03-01T13:09:00.898Z,64.59
2024-03-01T13:11:32.477Z,63.22
2024-03-01T13:14:25.485Z,62.37
2024-03-01T13:17:29.674Z,62.22
2024-03-01T13:20:32.990Z,62.42
2024-03-01T13:23:15.644Z,61.77
2024-03-01T13:26:06.515Z,62.01
2024-03-01T13:28:42.261Z,63.98
2024-03-01T13:31:17.860Z,63.72
2024-03-01T13:33:49.826Z,64.76
2024-03-01T13:36:28.174Z,65.00
2024-03-01T13:39:06.580Z,64.21
2024-03-01T13:41:39.729Z,63.66
2024-03-01T13:44:13.411Z,66.33
2024-03-01T13:46:41.700Z,65.33
2024-03-01T13:49:10.017Z,65.15
2024-03-01T13:51:38.737Z,63.86
2024-03-01T13:54:09.831Z,66.64
2024-03-01T13:56:40.622Z,67.49
2024-03-01T13:59:09.745Z,66.89
2024-03-01T14:01:38.469Z,64.94
2024-03-01T14:04:07.840Z,67.15
2024-03-01T14:06:44.990Z,65.36
2024-03-01T14:09:14.189Z,65.45
2024-03-01T14:11:46.718Z,66.70
2024-03-01T14:14:16.709Z,66.68
2024-03-01T14:16:48.768Z,66.18
2024-03-01T14:19:16.790Z,66.05
2024-03-01T14:21:44.953Z,65.50
2024-03-01T14:24:13.919Z,66.94
2024-03-01T14:26:42.178Z,66.99
2024-03-01T14:29:13.121Z,65.46
2024-03-01T14:32:07.613Z,65.94
2024-03-01T14:34:37.035Z,66.44
2024-03-01T14:37:06.028Z,67.11
2024-03-01T14:39:34.101Z,66.31
2024-03-01T14:42:02.432Z,65.82
2024-03-01T14:44:30.296Z,64.77
2024-03-01T14:46:59.784Z,65.51
2024-03-01T14:49:33.382Z,65.75
2024-03-01T14:52:11.377Z,65.76
2024-03-01T14:54:39.452Z,65.48
2024-03-01T14:57:07.584Z,65.70
2024-03-01T14:59:35.555Z,65.50
2024-03-01T15:02:05.197Z,65.11
2024-03-01T15:04:34.944Z,65.99
2024-03-01T15:07:04.781Z,65.50
2024-03-01T15:09:44.570Z,65.30
2024-03-01T15:12:12.740Z,66.82
2024-03-01T15:14:40.668Z,67.24
2024-03-01T15:17:09.716Z,67.00
2024-03-01T15:19:42.081Z,68.01
2024-03-01T15:22:13.527Z,67.87
2024-03-01T15:24:41.789Z,69.68
2024-03-01T15:27:09.758Z,68.67
2024-03-01T15:29:37.866Z,68.93
2024-03-01T15:32:08.571Z,69.35
2024-03-01T15:34:36.847Z,68.67
2024-03-01T15:37:04.951Z,68.51
2024-03-01T15:39:33.156Z,69.24
2024-03-01T15:42:01.427Z,68.88
2024-03-01T15:44:29.299Z,70.41
2024-03-01T15:46:57.606Z,69.63
2024-03-01T15:49:25.588Z,71.03
2024-03-01T15:51:54.596Z,69.91
2024-03-01T15:54:22.617Z,69.75
2024-03-01T15:56:50.857Z,70.36
2024-03-01T15:59:18.773Z,69.97
2024-03-01T16:01:47.341Z,69.93
2024-03-01T16:04:15.869Z,71.58
2024-03-01T16:06:44.045Z,70.88
2024-03-01T16:09:12.999Z,71.32
2024-03-01T16:11:42.847Z,71.47
2024-03-01T16:14:12.574Z,72.29
2024-03-01T16:16:40.750Z,70.63
2024-03-01T16:19:08.905Z,70.88
2024-03-01T16:21:37.268Z,70.87
2024-03-01T16:24:08.293Z,70.76
2024-03-01T16:26:36.278Z,70.28
2024-03-01T16:29:04.441Z,70.66
2024-03-01T16:31:32.398Z,71.10
2024-03-01T16:34:00.864Z,71.13
2024-03-01T16:36:30.692Z,72.09
2024-03-01T16:38:59.552Z,72.38
2024-03-01T16:41:38.456Z,71.71
2024-03-01T16:44:29.595Z,72.44
2024-03-01T16:46:58.662Z,70.72
2024-03-01T16:49:40.797Z,71.98
2024-03-01T16:52:14.681Z,72.57
2024-03-01T16:54:43.743Z,71.74
2024-03-01T16:57:27.518Z,71.55
2024-03-01T16:59:58.554Z,72.15
2024-03-01T17:02:38.653Z,72.04
2024-03-01T17:05:13.442Z,72.96
2024-03-01T17:07:47.346Z,72.30
2024-03-01T17:10:33.741Z,72.44
2024-03-01T17:13:03.829Z,72.53
2024-03-01T17:15:32.425Z,71.57
2024-03-01T17:18:00.914Z,71.23
2024-03-01T17:20:30.582Z,71.90
2024-03-01T17:22:58.571Z,71.33
2024-03-01T17:25:26.823Z,71.44
2024-03-01T17:27:54.698Z,71.64
2024-03-01T17:30:22.902Z,71.65
2024-03-01T17:32:50.829Z,72.16
2024-03-01T17:35:22.470Z,72.54
2024-03-01T17:37:50.663Z,72.07
2024-03-01T17:40:19.732Z,72.55
2024-03-01T17:42:48.313Z,72.38
2024-03-01T17:45:16.490Z,72.59
2024-03-01T17:47:44.617Z,71.89
2024-03-01T17:50:14.558Z,71.70
2024-03-01T17:52:42.756Z,73.17
2024-03-01T17:55:14.592Z,72.75
2024-03-01T17:57:42.586Z,72.21
2024-03-01T18:00:12.924Z,73.34
2024-03-01T18:02:41.132Z,72.95
2024-03-01T18:05:09.502Z,72.76
2024-03-01T18:07:37.502Z,72.20
2024-03-01T18:10:07.789Z,72.57
2024-03-01T18:12:35.836Z,72.57
2024-03-01T18:15:05.122Z,72.48
2024-03-01T18:17:33.150Z,72.08
2024-03-01T18:20:01.131Z,71.71
2024-03-01T18:22:29.259Z,72.10
2024-03-01T18:24:57.412Z,72.60
2024-03-01T18:27:25.528Z,72.92
2024-03-01T18:29:53.853Z,72.72
2024-03-01T18:32:21.787Z,72.46
2024-03-01T18:34:49.933Z,71.96
2024-03-01T18:37:18.354Z,72.57
2024-03-01T18:39:46.436Z,72.83
2024-03-01T18:42:14.583Z,72.78
2024-03-01T18:44:42.690Z,73.33
2024-03-01T18:47:10.603Z,71.96
2024-03-01T18:49:42.095Z,72.13
2024-03-01T18:52:10.858Z,71.94
2024-03-01T18:54:39.151Z,72.06
2024-03-01T18:57:07.513Z,71.76
2024-03-01T18:59:36.630Z,72.75
2024-03-01T19:02:06.245Z,72.19
2024-03-01T19:04:35.150Z,72.91
2024-03-01T19:07:03.353Z,73.03
2024-03-01T19:09:31.522Z,72.31
2024-03-01T19:11:59.565Z,71.82
2024-03-01T19:14:28.067Z,72.00
2024-03-01T19:16:57.894Z,72.30
2024-03-01T19:19:26.056Z,72.76
2024-03-01T19:21:54.473Z,73.00
2024-03-01T19:24:22.399Z,72.08
2024-03-01T19:26:53.240Z,72.78
2024-03-01T19:29:21.266Z,72.29
2024-03-01T19:31:49.573Z,72.77
2024-03-01T19:34:17.817Z,72.40
2024-03-01T19:36:48.928Z,72.45
2024-03-01T19:39:22.152Z,72.54
2024-03-01T19:41:52.855Z,72.68
2024-03-01T19:44:21.480Z,72.74
2024-03-01T19:46:49.799Z,72.96
2024-03-01T19:49:17.735Z,72.84
2024-03-01T19:51:46.043Z,72.61
2024-03-01T19:54:13.992Z,72.08
2024-03-01T19:56:42.660Z,72.67
2024-03-01T19:59:10.899Z,72.79
2024-03-01T20:01:39.000Z,73.25
2024-03-01T20:04:06.918Z,73.85
2024-03-01T20:06:38.501Z,73.49
2024-03-01T20:09:06.677Z,72.76
2024-03-01T20:11:35.145Z,73.14
2024-03-01T20:14:03.071Z,73.28
2024-03-01T20:16:31.338Z,72.41
2024-03-01T20:18:59.321Z,72.63
2024-03-01T20:21:27.560Z,73.60
2024-03-01T20:23:55.754Z,72.66
2024-03-01T20:26:24.493Z,73.16
2024-03-01T20:28:52.422Z,73.38
2024-03-01T20:31:20.598Z,73.16
2024-03-01T20:33:48.439Z,73.17
2024-03-01T20:36:16.486Z,73.05
2024-03-01T20:38:44.379Z,73.00
2024-03-01T20:41:12.442Z,72.21
2024-03-01T20:43:40.640Z,73.10
2024-03-01T20:46:10.195Z,72.27
2024-03-01T20:48:39.584Z,73.51
2024-03-01T20:51:07.646Z,72.66
2024-03-01T20:53:36.002Z,72.33
2024-03-01T20:56:04.967Z,73.06
2024-03-01T20:58:32.929Z,72.77
2024-03-01T21:01:02.876Z,72.32
2024-03-01T21:03:30.980Z,72.48
2024-03-01T21:05:59.247Z,72.76
2024-03-01T21:08:27.250Z,72.59
2024-03-01T21:10:55.449Z,72.93
2024-03-01T21:13:24.081Z,72.53
2024-03-01T21:15:52.695Z,72.73
2024-03-01T21:18:21.054Z,73.01
2024-03-01T21:20:49.212Z,73.05
2024-03-01T21:23:18.363Z,73.52
2024-03-01T21:25:46.488Z,72.61
2024-03-01T21:28:14.421Z,72.68
2024-03-01T21:30:44.604Z,72.75
2024-03-01T21:33:12.679Z,72.78
2024-03-01T21:35:42.780Z,72.59
2024-03-01T21:38:10.644Z,72.42
2024-03-01T21:40:38.889Z,72.09
2024-03-01T21:43:08.474Z,72.97
2024-03-01T21:45:36.746Z,71.54
2024-03-01T21:48:05.149Z,71.91
2024-03-01T21:50:33.472Z,72.63
2024-03-01T21:53:01.440Z,72.93
2024-03-01T21:55:29.670Z,72.25
2024-03-01T21:57:57.579Z,72.59
2024-03-01T22:00:25.732Z,72.88
2024-03-01T22:02:53.896Z,72.33
2024-03-01T22:05:24.298Z,72.64
2024-03-01T22:08:02.679Z,72.47
2024-03-01T22:10:38.172Z,72.80
2024-03-01T22:13:06.217Z,72.32
2024-03-01T22:15:34.129Z,72.31
2024-03-01T22:18:02.458Z,72.45
2024-03-01T22:20:30.399Z,71.92
2024-03-01T22:22:58.793Z,72.32
2024-03-01T22:25:26.744Z,72.13
2024-03-01T22:27:54.835Z,72.12
2024-03-01T22:30:24.319Z,72.37
2024-03-01T22:32:53.830Z,72.73
2024-03-01T22:35:21.956Z,72.35
2024-03-01T22:37:50.829Z,73.09
2024-03-01T22:40:19.216Z,72.15
2024-03-01T22:42:47.371Z,73.03
2024-03-01T22:45:20.720Z,72.52
2024-03-01T22:47:49.754Z,72.67
2024-03-01T22:50:17.870Z,72.72
2024-03-01T22:52:48.011Z,72.49
2024-03-01T22:55:41.924Z,72.76
2024-03-01T22:58:11.735Z,73.47
2024-03-01T23:00:48.051Z,73.46
2024-03-01T23:03:22.547Z,73.57
2024-03-01T23:06:00.940Z,73.14
2024-03-01T23:08:39.338Z,73.34
2024-03-01T23:11:33.542Z,72.89
2024-03-01T23:14:04.375Z,73.37
2024-03-01T23:16:32.434Z,73.27
2024-03-01T23:19:00.890Z,73.06
2024-03-01T23:21:28.894Z,73.80
2024-03-01T23:23:58.591Z,73.11
2024-03-01T23:26:26.560Z,73.52
2024-03-01T23:28:54.697Z,73.76
2024-03-01T23:31:22.638Z,73.26
2024-03-01T23:33:50.996Z,73.84
2024-03-01T23:36:19.071Z,72.98
2024-03-01T23:38:47.790Z,73.48
2024-03-01T23:41:17.199Z,73.54
2024-03-01T23:43:45.349Z,73.01
2024-03-01T23:46:14.159Z,72.99
2024-03-01T23:48:43.832Z,73.05
2024-03-01T23:51:11.930Z,73.38
2024-03-01T23:53:40.171Z,73.72
2024-03-01T23:56:08.236Z,73.08
2024-03-01T23:58:43.722Z,72.94
